createdAt,value
2018-11-12T00:00:00.069Z,41.00
2018-11-12T00:02:27.115Z,41.37
2018-11-12T00:04:54.169Z,92.63
2018-11-12T00:07:21.628Z,127.50
2018-11-12T00:09:48.570Z,43.53
2018-11-12T00:12:15.624Z,29.00
2018-11-12T00:14:43.080Z,113.40
2018-11-12T00:17:10.123Z,94.43
2018-11-12T00:19:37.172Z,35.83
2018-11-12T00:22:04.565Z,36.27
2018-11-12T00:24:32.916Z,23.23
2018-11-12T00:26:59.957Z,24.70
2018-11-12T00:29:27.004Z,24.63
2018-11-12T00:31:54.059Z,28.80
2018-11-12T00:34:21.101Z,21.97
2018-11-12T00:36:49.282Z,21.50
2018-11-12T00:39:16.272Z,17.20
2018-11-12T00:41:43.277Z,26.10
2018-11-12T00:44:10.320Z,19.57
2018-11-12T00:46:37.368Z,19.87
2018-11-12T00:49:04.422Z,19.63
2018-11-12T00:51:31.465Z,17.93
2018-11-12T00:53:58.514Z,20.87
2018-11-12T00:56:25.567Z,16.03
2018-11-12T00:58:52.559Z,18.83
2018-11-12T01:01:19.562Z,76.20
2018-11-12T01:03:46.607Z,20.07
2018-11-12T01:06:13.521Z,18.30
2018-11-12T01:08:40.498Z,19.80
2018-11-12T01:11:07.553Z,22.27
2018-11-12T01:13:34.596Z,20.60
2018-11-12T01:16:01.709Z,18.40
2018-11-12T01:18:28.698Z,24.93
2018-11-12T01:20:55.741Z,48.77
2018-11-12T01:23:22.790Z,29.20
2018-11-12T01:25:49.736Z,23.07
2018-11-12T01:28:16.786Z,16.10
2018-11-12T01:30:44.961Z,17.37
2018-11-12T01:33:12.013Z,30.57
2018-11-12T01:35:39.063Z,16.20
2018-11-12T01:38:06.153Z,29.33
2018-11-12T01:40:33.110Z,13.63
2018-11-12T01:43:00.104Z,14.47
2018-11-12T01:45:27.763Z,15.47
2018-11-12T01:47:54.819Z,21.47
2018-11-12T01:50:21.805Z,14.33
2018-11-12T01:52:49.830Z,20.70
2018-11-12T01:55:16.734Z,138.07
2018-11-12T01:57:44.542Z,42.13
2018-11-12T02:00:12.108Z,40.47
2018-11-12T02:02:39.150Z,97.17
2018-11-12T02:05:06.200Z,35.50
2018-11-12T02:07:34.790Z,39.97
2018-11-12T02:10:01.731Z,17.63
2018-11-12T02:12:28.783Z,16.07
2018-11-12T02:14:55.829Z,19.43
2018-11-12T02:17:23.286Z,15.23
2018-11-12T02:19:50.333Z,14.30
2018-11-12T02:22:17.389Z,17.00
2018-11-12T02:24:44.431Z,16.07
2018-11-12T02:27:11.386Z,31.57
2018-11-12T02:29:38.426Z,19.93
2018-11-12T02:32:05.475Z,19.60
2018-11-12T02:34:32.528Z,17.37
2018-11-12T02:36:59.572Z,24.40
2018-11-12T02:39:26.619Z,26.73
2018-11-12T02:41:53.674Z,13.73
2018-11-12T02:44:20.717Z,27.33
2018-11-12T02:46:47.771Z,50.20
2018-11-12T02:49:14.990Z,14.63
2018-11-12T02:51:42.682Z,15.77
2018-11-12T02:54:09.740Z,13.43
2018-11-12T02:56:36.779Z,14.57
2018-11-12T02:59:03.827Z,16.93
2018-11-12T03:01:30.882Z,18.17
2018-11-12T03:03:57.925Z,15.43
2018-11-12T03:06:24.976Z,17.37
2018-11-12T03:08:52.794Z,16.93
2018-11-12T03:11:19.731Z,16.30
2018-11-12T03:13:47.452Z,14.20
2018-11-12T03:16:14.445Z,20.03
2018-11-12T03:18:41.445Z,14.60
2018-11-12T03:21:09.011Z,16.63
2018-11-12T03:23:36.053Z,15.10
2018-11-12T03:26:03.208Z,15.43
2018-11-12T03:28:30.663Z,14.83
2018-11-12T03:30:57.711Z,14.23
2018-11-12T03:33:24.766Z,39.13
2018-11-12T03:35:51.858Z,17.17
2018-11-12T03:38:18.959Z,18.57
2018-11-12T03:40:46.008Z,20.63
2018-11-12T03:43:13.160Z,13.07
2018-11-12T03:45:40.212Z,14.30
2018-11-12T03:48:07.256Z,15.03
2018-11-12T03:50:34.714Z,16.70
2018-11-12T03:53:01.774Z,14.17
2018-11-12T03:55:28.818Z,15.60
2018-11-12T03:57:55.864Z,16.30
2018-11-12T04:00:22.985Z,17.60
2018-11-12T04:02:49.963Z,14.70
2018-11-12T04:05:16.906Z,13.50
2018-11-12T04:07:43.851Z,14.53
2018-11-12T04:10:10.899Z,14.23
2018-11-12T04:12:37.952Z,12.70
2018-11-12T04:15:04.996Z,17.23
2018-11-12T04:17:32.043Z,22.03
2018-11-12T04:19:59.098Z,27.30
2018-11-12T04:22:26.143Z,24.37
2018-11-12T04:24:53.194Z,28.87
2018-11-12T04:27:20.243Z,27.17
2018-11-12T04:29:47.292Z,44.87
2018-11-12T04:32:14.337Z,37.87
2018-11-12T04:34:41.390Z,65.30
2018-11-12T04:37:08.436Z,48.23
2018-11-12T04:39:52.425Z,27.47
2018-11-12T04:42:36.191Z,36.10
2018-11-12T04:45:03.174Z,30.97
2018-11-12T04:47:30.214Z,25.00
2018-11-12T04:49:57.263Z,45.67
2018-11-12T04:52:24.317Z,60.83
2018-11-12T04:54:51.305Z,41.67
2018-11-12T04:57:18.311Z,50.63
2018-11-12T04:59:45.256Z,45.30
2018-11-12T05:02:12.309Z,52.13
2018-11-12T05:04:39.350Z,34.07
2018-11-12T05:07:06.376Z,52.87
2018-11-12T05:09:33.290Z,45.40
2018-11-12T05:12:00.396Z,24.23
2018-11-12T05:14:27.446Z,50.40
2018-11-12T05:16:55.047Z,61.77
2018-11-12T05:19:21.948Z,33.87
2018-11-12T05:21:50.943Z,54.53
2018-11-12T05:24:17.993Z,62.37
2018-11-12T05:26:45.247Z,59.33
2018-11-12T05:29:12.601Z,62.30
2018-11-12T05:31:39.852Z,45.80
2018-11-12T05:34:06.902Z,52.30
2018-11-12T05:36:34.358Z,64.83
2018-11-12T05:39:02.124Z,59.20
2018-11-12T05:41:29.179Z,72.67
2018-11-12T05:43:56.221Z,68.40
2018-11-12T05:46:23.270Z,70.93
2018-11-12T05:48:50.324Z,92.03
2018-11-12T05:51:17.486Z,87.93
2018-11-12T05:53:44.521Z,68.10
2018-11-12T05:56:11.567Z,64.30
2018-11-12T05:58:38.620Z,99.17
2018-11-12T06:01:05.868Z,129.13
2018-11-12T06:03:32.922Z,89.83
2018-11-12T06:05:59.965Z,113.70
2018-11-12T06:08:26.917Z,109.63
2018-11-12T06:10:53.858Z,73.47
2018-11-12T06:13:20.913Z,80.27
2018-11-12T06:15:48.264Z,54.30
2018-11-12T06:18:15.261Z,105.17
2018-11-12T06:20:42.258Z,85.77
2018-11-12T06:23:09.310Z,88.80
2018-11-12T06:25:36.360Z,73.37
2018-11-12T06:28:03.404Z,96.40
2018-11-12T06:30:30.409Z,143.60
2018-11-12T06:32:57.398Z,97.37
2018-11-12T06:35:24.447Z,146.17
2018-11-12T06:37:51.438Z,102.70
2018-11-12T06:40:18.555Z,104.80
2018-11-12T06:42:45.684Z,104.13
2018-11-12T06:45:12.651Z,115.70
2018-11-12T06:47:39.689Z,148.47
2018-11-12T06:50:06.691Z,111.33
2018-11-12T06:52:33.684Z,80.50
2018-11-12T06:55:00.636Z,136.70
2018-11-12T06:57:27.678Z,112.10
2018-11-12T06:59:54.727Z,135.97
2018-11-12T07:02:21.780Z,125.60
2018-11-12T07:04:48.828Z,124.87
2018-11-12T07:07:15.872Z,116.83
2018-11-12T07:09:42.928Z,139.87
2018-11-12T07:12:09.970Z,138.50
2018-11-12T07:14:37.019Z,193.77
2018-11-12T07:17:04.169Z,103.40
2018-11-12T07:19:31.162Z,146.03
2018-11-12T07:21:58.167Z,171.43
2018-11-12T07:24:25.222Z,257.90
2018-11-12T07:26:52.263Z,241.33
2018-11-12T07:29:19.313Z,258.07
2018-11-12T07:31:46.366Z,146.83
2018-11-12T07:34:13.563Z,131.73
2018-11-12T07:36:46.908Z,163.57
2018-11-12T07:39:13.963Z,100.57
2018-11-12T07:41:41.004Z,205.40
2018-11-12T07:44:08.052Z,94.97
2018-11-12T07:46:35.106Z,168.03
2018-11-12T07:49:02.150Z,231.87
2018-11-12T07:51:29.243Z,209.33
2018-11-12T07:53:56.251Z,211.33
2018-11-12T07:56:23.333Z,88.70
2018-11-12T07:58:50.348Z,76.60
2018-11-12T08:01:17.398Z,150.57
2018-11-12T08:03:44.458Z,149.03
2018-11-12T08:06:11.490Z,114.83
2018-11-12T08:08:38.545Z,132.47
2018-11-12T08:11:05.487Z,92.90
2018-11-12T08:13:32.537Z,102.70
2018-11-12T08:15:59.580Z,176.37
2018-11-12T08:18:26.629Z,99.50
2018-11-12T08:20:53.623Z,130.13
2018-11-12T08:23:20.625Z,121.20
2018-11-12T08:25:47.678Z,130.77
2018-11-12T08:28:16.057Z,96.23
2018-11-12T08:30:43.103Z,169.93
2018-11-12T08:33:10.189Z,133.70
2018-11-12T08:35:38.125Z,119.53
2018-11-12T08:38:05.167Z,130.33
2018-11-12T08:40:32.659Z,137.03
2018-11-12T08:43:00.035Z,155.83
2018-11-12T08:45:27.036Z,133.30
2018-11-12T08:47:54.080Z,120.23
2018-11-12T08:50:21.743Z,167.73
2018-11-12T08:52:48.688Z,126.40
2018-11-12T08:55:15.796Z,175.13
2018-11-12T08:57:46.477Z,176.07
2018-11-12T09:00:13.998Z,344.80
2018-11-12T09:02:40.980Z,227.87
2018-11-12T09:05:09.358Z,276.97
2018-11-12T09:07:36.406Z,343.70
2018-11-12T09:10:08.703Z,388.70
2018-11-12T09:12:35.726Z,269.77
2018-11-12T09:15:02.775Z,271.30
2018-11-12T09:17:29.828Z,380.37
2018-11-12T09:19:56.874Z,270.37
2018-11-12T09:22:23.928Z,271.63
2018-11-12T09:24:50.976Z,312.37
2018-11-12T09:27:17.965Z,286.57
2018-11-12T09:29:44.969Z,300.70
2018-11-12T09:32:11.964Z,230.43
2018-11-12T09:34:38.964Z,267.40
2018-11-12T09:37:08.976Z,252.97
2018-11-12T09:39:35.925Z,187.13
2018-11-12T09:42:02.971Z,140.67
2018-11-12T09:44:29.917Z,136.17
2018-11-12T09:46:56.967Z,190.57
2018-11-12T09:49:24.020Z,189.77
2018-11-12T09:51:51.063Z,171.83
2018-11-12T09:54:18.183Z,140.83
2018-11-12T09:56:45.166Z,151.37
2018-11-12T09:59:12.148Z,171.27
2018-11-12T10:01:40.143Z,154.37
2018-11-12T10:04:07.782Z,188.30
2018-11-12T10:06:34.843Z,160.87
2018-11-12T10:09:02.916Z,169.90
2018-11-12T10:11:31.776Z,178.33
2018-11-12T10:13:57.595Z,196.90
2018-11-12T10:16:24.966Z,206.80
2018-11-12T10:18:52.186Z,183.20
2018-11-12T10:21:19.233Z,153.00
2018-11-12T10:23:46.284Z,183.83
2018-11-12T10:26:13.688Z,185.33
2018-11-12T10:28:40.682Z,116.63
2018-11-12T10:31:07.738Z,102.07
2018-11-12T10:33:35.135Z,123.70
2018-11-12T10:36:02.238Z,98.07
2018-11-12T10:38:30.776Z,111.50
2018-11-12T10:40:59.377Z,92.47
2018-11-12T10:43:26.353Z,72.70
2018-11-12T10:45:53.406Z,84.70
2018-11-12T10:48:21.183Z,73.07
2018-11-12T10:50:56.247Z,84.50
2018-11-12T10:53:15.264Z,96.00
2018-11-12T10:55:42.376Z,95.63
2018-11-12T10:58:10.490Z,89.53
2018-11-12T11:00:37.541Z,81.37
2018-11-12T11:03:04.698Z,80.63
2018-11-12T11:05:31.633Z,71.97
2018-11-12T11:07:58.699Z,65.57
2018-11-12T11:10:25.729Z,58.47
2018-11-12T11:12:52.780Z,73.93
2018-11-12T11:15:19.882Z,84.70
2018-11-12T11:17:46.984Z,78.77
2018-11-12T11:20:14.027Z,59.33
2018-11-12T11:22:41.177Z,56.20
2018-11-12T11:25:10.257Z,61.10
2018-11-12T11:27:37.323Z,52.27
2018-11-12T11:30:04.374Z,57.83
2018-11-12T11:32:31.366Z,61.13
2018-11-12T11:34:58.366Z,63.27
2018-11-12T11:37:25.423Z,60.97
2018-11-12T11:39:53.454Z,62.20
2018-11-12T11:42:20.434Z,54.87
2018-11-12T11:44:47.491Z,56.40
2018-11-12T11:47:14.582Z,58.90
2018-11-12T11:49:41.580Z,53.77
2018-11-12T11:52:09.759Z,57.65
2018-11-12T11:54:36.804Z,50.88
2018-11-12T11:57:03.879Z,43.58
2018-11-12T11:59:30.798Z,41.13
2018-11-12T12:01:57.852Z,39.67
2018-11-12T12:04:24.895Z,40.55
2018-11-12T12:06:51.944Z,47.28
2018-11-12T12:09:19.060Z,39.20
2018-11-12T12:11:46.042Z,43.90
2018-11-12T12:14:13.090Z,43.80
2018-11-12T12:16:40.147Z,35.63
2018-11-12T12:19:07.195Z,33.20
2018-11-12T12:21:35.059Z,40.10
2018-11-12T12:24:02.105Z,42.00
2018-11-12T12:26:29.152Z,39.45
2018-11-12T12:28:56.206Z,34.40
2018-11-12T12:31:23.250Z,36.40
2018-11-12T12:33:50.298Z,38.33
2018-11-12T12:36:17.407Z,37.42
2018-11-12T12:38:44.396Z,36.70
2018-11-12T12:41:11.444Z,38.28
2018-11-12T12:43:38.497Z,41.20
2018-11-12T12:46:05.542Z,36.90
2018-11-12T12:48:32.590Z,38.95
2018-11-12T12:50:59.644Z,36.70
2018-11-12T12:53:26.690Z,34.38
2018-11-12T12:55:53.781Z,33.03
2018-11-12T12:58:20.817Z,28.92
2018-11-12T13:00:47.832Z,28.45
2018-11-12T13:03:14.784Z,30.95
2018-11-12T13:05:43.208Z,36.60
2018-11-12T13:08:10.207Z,33.60
2018-11-12T13:10:37.261Z,34.22
2018-11-12T13:13:04.312Z,30.98
2018-11-12T13:15:31.358Z,25.27
2018-11-12T13:17:58.404Z,27.13
2018-11-12T13:20:25.361Z,31.55
2018-11-12T13:22:52.347Z,34.03
2018-11-12T13:25:19.342Z,37.42
2018-11-12T13:27:46.392Z,35.13
2018-11-12T13:30:14.066Z,36.40
2018-11-12T13:32:41.103Z,35.15
2018-11-12T13:35:08.152Z,29.83
2018-11-12T13:37:35.206Z,29.60
2018-11-12T13:40:02.249Z,25.83
2018-11-12T13:42:29.298Z,26.35
2018-11-12T13:44:56.353Z,29.80
2018-11-12T13:47:23.395Z,34.22
2018-11-12T13:49:50.443Z,35.40
2018-11-12T13:52:17.389Z,30.33
2018-11-12T13:54:46.188Z,32.25
2018-11-12T13:57:13.176Z,29.83
2018-11-12T13:59:40.276Z,32.85
2018-11-12T14:02:07.637Z,30.15
2018-11-12T14:04:34.681Z,31.05
2018-11-12T14:07:03.010Z,30.73
2018-11-12T14:09:31.855Z,32.50
2018-11-12T14:11:58.898Z,31.30
2018-11-12T14:14:25.947Z,33.25
2018-11-12T14:16:53.201Z,34.80
2018-11-12T14:19:20.249Z,32.83
2018-11-12T14:21:47.304Z,33.40
2018-11-12T14:24:14.698Z,33.15
2018-11-12T14:26:41.702Z,34.65
2018-11-12T14:29:08.757Z,31.98
2018-11-12T14:31:35.800Z,37.42
2018-11-12T14:34:02.751Z,37.10
2018-11-12T14:36:29.741Z,36.55
2018-11-12T14:38:56.746Z,38.45
2018-11-12T14:41:24.302Z,34.53
2018-11-12T14:43:51.356Z,33.45
2018-11-12T14:46:18.399Z,38.53
2018-11-12T14:48:45.449Z,35.22
2018-11-12T14:51:12.555Z,39.00
2018-11-12T14:53:39.544Z,35.30
2018-11-12T14:56:06.593Z,37.47
2018-11-12T14:58:33.541Z,36.75
2018-11-12T15:01:00.589Z,40.33
2018-11-12T15:03:27.641Z,40.15
2018-11-12T15:05:54.689Z,38.20
2018-11-12T15:08:21.733Z,38.60
2018-11-12T15:10:48.726Z,42.85
2018-11-12T15:13:15.729Z,39.70
2018-11-12T15:15:42.781Z,39.05
2018-11-12T15:18:09.826Z,41.85
2018-11-12T15:20:36.874Z,36.72
2018-11-12T15:23:03.820Z,36.13
2018-11-12T15:25:30.869Z,43.42
2018-11-12T15:27:57.922Z,40.22
2018-11-12T15:30:26.610Z,40.05
2018-11-12T15:32:53.652Z,39.85
2018-11-12T15:35:22.600Z,40.70
2018-11-12T15:37:49.702Z,38.95
2018-11-12T15:40:16.755Z,41.37
2018-11-12T15:42:43.793Z,40.92
2018-11-12T15:45:10.745Z,41.03
2018-11-12T15:47:37.787Z,39.80
2018-11-12T15:50:04.838Z,38.33
2018-11-12T15:52:31.892Z,39.15
2018-11-12T15:54:58.934Z,37.55
2018-11-12T15:57:26.989Z,34.75
2018-11-12T15:59:54.159Z,35.90
2018-11-12T16:02:21.207Z,36.17
2018-11-12T16:04:48.262Z,38.10
2018-11-12T16:07:15.307Z,40.88
2018-11-12T16:09:42.971Z,35.60
2018-11-12T16:12:10.035Z,41.42
2018-11-12T16:14:37.096Z,46.95
2018-11-12T16:17:04.219Z,43.87
2018-11-12T16:19:31.264Z,57.92
2018-11-12T16:22:03.022Z,56.70
2018-11-12T16:24:30.171Z,47.62
2018-11-12T16:26:57.233Z,48.70
2018-11-12T16:29:24.886Z,57.47
2018-11-12T16:31:51.934Z,50.55
2018-11-12T16:34:18.988Z,50.85
2018-11-12T16:36:46.066Z,53.20
2018-11-12T16:39:15.226Z,53.47
2018-11-12T16:41:42.283Z,56.75
2018-11-12T16:44:09.327Z,64.47
2018-11-12T16:46:36.375Z,56.67
2018-11-12T16:49:03.429Z,55.17
2018-11-12T16:51:31.196Z,62.05
2018-11-12T16:53:58.444Z,59.90
2018-11-12T16:56:25.497Z,60.55
2018-11-12T16:58:52.539Z,58.08
2018-11-12T17:01:19.599Z,59.63
2018-11-12T17:03:46.643Z,55.25
2018-11-12T17:06:13.690Z,54.58
2018-11-12T17:08:40.736Z,53.40
2018-11-12T17:11:07.818Z,52.40
2018-11-12T17:13:34.832Z,56.83
2018-11-12T17:16:01.881Z,54.47
2018-11-12T17:18:28.934Z,56.28
2018-11-12T17:20:55.877Z,54.47
2018-11-12T17:23:22.929Z,52.65
2018-11-12T17:25:49.919Z,54.92
2018-11-12T17:28:17.635Z,55.03
2018-11-12T17:30:44.749Z,62.40
2018-11-12T17:33:11.737Z,58.77
2018-11-12T17:35:40.114Z,61.37
2018-11-12T17:38:07.166Z,56.17
2018-11-12T17:40:35.949Z,56.33
2018-11-12T17:43:03.569Z,59.47
2018-11-12T17:45:30.561Z,53.27
2018-11-12T17:47:57.607Z,64.30
2018-11-12T17:50:24.662Z,64.83
2018-11-12T17:52:53.445Z,54.87
2018-11-12T17:55:20.393Z,61.77
2018-11-12T17:57:47.441Z,52.43
2018-11-12T18:00:14.493Z,62.37
2018-11-12T18:02:41.538Z,68.53
2018-11-12T18:05:08.586Z,65.47
2018-11-12T18:07:35.852Z,72.57
2018-11-12T18:10:02.686Z,76.10
2018-11-12T18:12:29.739Z,60.93
2018-11-12T18:14:56.785Z,54.23
2018-11-12T18:17:25.264Z,63.73
2018-11-12T18:19:52.317Z,69.17
2018-11-12T18:22:19.362Z,65.97
2018-11-12T18:24:46.408Z,71.43
2018-11-12T18:27:13.461Z,63.37
2018-11-12T18:29:40.522Z,57.73
2018-11-12T18:32:07.555Z,58.17
2018-11-12T18:34:34.608Z,62.90
2018-11-12T18:37:01.759Z,74.23
2018-11-12T18:39:28.803Z,67.63
2018-11-12T18:41:55.851Z,62.43
2018-11-12T18:44:26.391Z,47.47
2018-11-12T18:46:53.435Z,46.30
2018-11-12T18:49:20.479Z,52.57
2018-11-12T18:51:48.447Z,42.83
2018-11-12T18:54:15.502Z,44.70
2018-11-12T18:56:43.056Z,42.67
2018-11-12T18:59:10.112Z,43.93
2018-11-12T19:01:37.158Z,35.83
2018-11-12T19:04:04.207Z,34.03
2018-11-12T19:06:31.258Z,37.07
2018-11-12T19:08:58.413Z,38.77
2018-11-12T19:11:25.455Z,41.30
2018-11-12T19:13:52.500Z,67.00
2018-11-12T19:16:19.603Z,467.30
2018-11-12T19:18:46.596Z,67.03
2018-11-12T19:21:13.666Z,49.13
2018-11-12T19:23:41.103Z,50.80
2018-11-12T19:26:08.157Z,54.57
2018-11-12T19:28:35.203Z,55.90
2018-11-12T19:31:02.250Z,45.93
2018-11-12T19:33:29.302Z,51.37
2018-11-12T19:35:56.349Z,51.93
2018-11-12T19:38:24.728Z,54.50
2018-11-12T19:40:51.848Z,51.70
2018-11-12T19:43:18.830Z,45.83
2018-11-12T19:45:45.871Z,55.30
2018-11-12T19:48:12.926Z,57.00
2018-11-12T19:50:39.975Z,52.60
2018-11-12T19:53:07.018Z,49.73
2018-11-12T19:55:34.081Z,54.67
2018-11-12T19:58:01.120Z,54.37
2018-11-12T20:00:28.163Z,60.00
2018-11-12T20:02:55.214Z,56.47
2018-11-12T20:05:22.268Z,48.90
2018-11-12T20:07:49.514Z,50.10
2018-11-12T20:10:16.568Z,55.53
2018-11-12T20:12:43.561Z,49.23
2018-11-12T20:15:10.564Z,47.60
2018-11-12T20:17:37.610Z,49.73
2018-11-12T20:20:04.614Z,45.63
2018-11-12T20:22:31.559Z,52.90
2018-11-12T20:24:58.707Z,58.23
2018-11-12T20:27:25.703Z,54.03
2018-11-12T20:29:52.747Z,54.97
2018-11-12T20:32:20.974Z,64.00
2018-11-12T20:34:47.971Z,72.37
2018-11-12T20:37:16.248Z,74.03
2018-11-12T20:39:43.400Z,62.10
2018-11-12T20:42:10.857Z,69.27
2018-11-12T20:44:41.407Z,65.40
2018-11-12T20:47:08.643Z,67.97
2018-11-12T20:49:37.021Z,69.90
2018-11-12T20:52:05.202Z,69.13
2018-11-12T20:54:33.692Z,66.30
2018-11-12T20:57:01.040Z,70.60
2018-11-12T20:59:29.619Z,66.67
2018-11-12T21:01:58.101Z,82.13
2018-11-12T21:04:25.152Z,79.83
2018-11-12T21:06:54.105Z,79.00
2018-11-12T21:09:25.099Z,76.77
2018-11-12T21:11:55.145Z,71.40
2018-11-12T21:14:23.934Z,77.13
2018-11-12T21:16:54.498Z,72.67
2018-11-12T21:19:21.834Z,79.93
2018-11-12T21:21:50.463Z,86.30
2018-11-12T21:24:17.825Z,81.90
2018-11-12T21:26:44.766Z,75.87
2018-11-12T21:29:11.823Z,79.00
2018-11-12T21:31:39.477Z,80.87
2018-11-12T21:34:06.526Z,82.33
2018-11-12T21:36:33.580Z,73.80
2018-11-12T21:39:00.623Z,96.97
2018-11-12T21:41:27.673Z,104.57
2018-11-12T21:43:54.820Z,102.57
2018-11-12T21:46:22.800Z,111.87
2018-11-12T21:48:50.198Z,114.60
2018-11-12T21:51:17.198Z,115.80
2018-11-12T21:53:44.254Z,116.83
2018-11-12T21:56:11.299Z,121.27
2018-11-12T21:58:38.405Z,115.53
2018-11-12T22:01:05.399Z,125.33
2018-11-12T22:03:33.165Z,123.87
2018-11-12T22:06:00.210Z,120.87
2018-11-12T22:08:27.267Z,116.90
2018-11-12T22:10:54.251Z,121.30
2018-11-12T22:13:21.250Z,116.07
2018-11-12T22:15:48.308Z,118.50
2018-11-12T22:18:15.346Z,120.17
2018-11-12T22:20:42.398Z,129.83
2018-11-12T22:23:09.448Z,123.80
2018-11-12T22:25:36.492Z,130.07
2018-11-12T22:28:03.625Z,133.80
2018-11-12T22:30:36.431Z,132.70
2018-11-12T22:33:03.474Z,139.83
2018-11-12T22:35:30.523Z,144.73
2018-11-12T22:37:57.577Z,128.50
2018-11-12T22:40:24.620Z,136.97
2018-11-12T22:42:51.771Z,129.60
2018-11-12T22:45:18.922Z,137.80
2018-11-12T22:47:45.972Z,127.50
2018-11-12T22:50:13.025Z,128.93
2018-11-12T22:52:40.070Z,129.03
2018-11-12T22:55:07.117Z,133.23
2018-11-12T22:57:37.031Z,125.30
2018-11-12T23:00:04.185Z,139.20
2018-11-12T23:02:31.238Z,126.17
2018-11-12T23:04:58.280Z,129.40
2018-11-12T23:07:25.330Z,138.07
2018-11-12T23:09:52.383Z,131.80
2018-11-12T23:12:19.431Z,135.17
2018-11-12T23:14:46.475Z,123.83
2018-11-12T23:17:13.528Z,124.57
2018-11-12T23:19:42.224Z,130.47
2018-11-12T23:22:09.259Z,123.57
2018-11-12T23:24:36.257Z,129.20
2018-11-12T23:27:03.253Z,126.37
2018-11-12T23:29:30.301Z,126.23
2018-11-12T23:31:57.356Z,126.93
2018-11-12T23:34:24.399Z,129.53
2018-11-12T23:36:51.447Z,138.43
2018-11-12T23:39:18.501Z,132.60
2018-11-12T23:41:45.543Z,124.10
2018-11-12T23:44:12.497Z,131.00
2018-11-12T23:46:39.544Z,135.93
2018-11-12T23:49:07.802Z,138.40
2018-11-12T23:51:34.732Z,135.87
2018-11-12T23:54:01.715Z,131.60
2018-11-12T23:56:28.705Z,125.77
2018-11-12T23:58:55.714Z,123.13
